createdAt,value
2019-01-30T06:25:31.924Z,987.25
2019-01-30T06:26:31.928Z,987.26
2019-01-30T06:27:31.879Z,987.30
2019-01-30T06:28:31.866Z,987.23
2019-01-30T06:29:31.882Z,987.24
2019-01-30T06:30:31.899Z,987.18
2019-01-30T06:31:31.831Z,987.16
2019-01-30T06:32:31.947Z,987.18
2019-01-30T06:33:31.879Z,987.11
2019-01-30T06:34:31.846Z,987.18
2019-01-30T06:36:06.030Z,987.14
2019-01-30T06:36:31.770Z,987.17
2019-01-30T06:37:31.778Z,987.07
2019-01-30T06:38:31.770Z,987.07
2019-01-30T06:39:31.743Z,987.03
2019-01-30T06:40:31.754Z,987.05
2019-01-30T06:41:31.742Z,986.96
2019-01-30T06:42:31.745Z,986.98
2019-01-30T06:43:31.719Z,986.97
2019-01-30T06:44:31.731Z,987.00
2019-01-30T06:45:32.738Z,987.03
2019-01-30T06:46:31.705Z,987.01
2019-01-30T06:47:31.658Z,987.02
2019-01-30T06:51:58.194Z,987.03
2019-01-30T06:52:55.936Z,987.03
2019-01-30T06:53:55.913Z,986.99
2019-01-30T06:54:55.896Z,986.97
2019-01-30T06:55:55.886Z,986.99
2019-01-30T06:56:56.918Z,986.95
2019-01-30T06:57:55.857Z,986.93
2019-01-30T06:58:55.969Z,986.99
2019-01-30T06:59:57.968Z,987.02
2019-01-30T07:01:00.560Z,987.04
2019-01-30T07:01:57.834Z,987.03
2019-01-30T07:02:57.340Z,986.97
2019-01-30T07:03:58.327Z,986.98
2019-01-30T07:05:07.400Z,986.97
2019-01-30T07:05:56.393Z,986.97
2019-01-30T07:07:06.943Z,986.99
2019-01-30T07:08:20.164Z,987.01
2019-01-30T07:09:04.093Z,986.96
2019-01-30T07:09:56.829Z,986.97
2019-01-30T07:10:56.008Z,986.97
2019-01-30T07:11:57.942Z,987.01
2019-01-30T07:13:02.880Z,987.02
2019-01-30T07:14:02.592Z,986.98
2019-01-30T07:15:59.846Z,987.02
2019-01-30T07:16:58.469Z,987.05
2019-01-30T07:17:58.548Z,987.02
2019-01-30T07:18:55.833Z,987.02
2019-01-30T11:36:33.747Z,987.40
2019-01-30T11:45:38.141Z,987.39
2019-01-30T11:46:38.107Z,987.36
2019-01-30T11:47:38.105Z,987.32
2019-01-30T11:48:38.087Z,987.34
2019-01-30T11:49:38.073Z,987.36
2019-01-30T11:50:38.091Z,987.31
2019-01-30T11:51:38.056Z,987.32
2019-01-30T11:52:38.045Z,987.36
2019-01-30T11:53:38.033Z,987.29
2019-01-30T11:54:38.774Z,987.31
2019-01-30T11:55:38.983Z,987.29
2019-01-30T11:56:37.997Z,987.33
2019-01-30T11:57:38.089Z,987.30
2019-01-30T11:58:37.979Z,987.33
2019-01-30T11:59:37.971Z,987.32
2019-01-30T12:00:37.995Z,987.36
2019-01-30T12:01:37.954Z,987.35
2019-01-30T12:02:47.472Z,987.38
2019-01-30T12:03:38.928Z,987.36
2019-01-30T12:04:37.922Z,987.37
2019-01-30T12:05:46.515Z,987.35
2019-01-30T12:06:46.977Z,987.36
2019-01-30T12:07:47.011Z,987.33
2019-01-30T12:08:37.868Z,987.34
2019-01-30T12:09:37.861Z,987.31
2019-01-30T12:10:37.849Z,987.31
2019-01-30T12:11:37.859Z,987.35
2019-01-30T12:12:37.864Z,987.38
2019-01-30T12:13:37.818Z,987.28
2019-01-30T12:14:37.810Z,987.35
2019-01-30T12:15:38.633Z,987.26
2019-01-30T12:16:37.853Z,987.31
2019-01-30T12:17:37.779Z,987.26
2019-01-30T12:18:37.765Z,987.31
2019-01-30T12:19:37.751Z,987.33
2019-01-30T12:20:37.778Z,987.36
2019-01-30T12:21:37.734Z,987.36
2019-01-30T12:22:37.748Z,987.36
2019-01-30T12:23:37.715Z,987.37
2019-01-30T12:24:37.700Z,987.38
2019-01-30T12:25:37.703Z,987.33
2019-01-30T12:26:37.683Z,987.35
2019-01-30T12:27:37.689Z,987.34
2019-01-30T12:28:37.681Z,987.34
2019-01-30T12:29:37.647Z,987.37
2019-01-30T12:30:37.638Z,987.41
2019-01-30T12:31:37.630Z,987.35
2019-01-30T12:32:37.645Z,987.45
2019-01-30T12:33:37.603Z,987.40
2019-01-30T12:34:37.593Z,987.42
2019-01-30T12:35:37.583Z,987.43
2019-01-30T12:36:37.669Z,987.39
2019-01-30T12:37:37.562Z,987.41
2019-01-30T12:38:37.565Z,987.45
2019-01-30T12:39:37.537Z,987.49
2019-01-30T12:40:37.527Z,987.48
2019-01-30T12:41:37.512Z,987.46
2019-01-30T12:42:37.499Z,987.51
2019-01-30T12:43:37.511Z,987.50
2019-01-30T12:44:37.478Z,987.48
2019-01-30T12:45:37.467Z,987.52
2019-01-30T12:46:37.459Z,987.47
2019-01-30T12:47:37.448Z,987.51
2019-01-30T12:48:37.489Z,987.50
2019-01-30T12:49:37.425Z,987.54
2019-01-30T12:50:37.416Z,987.52
2019-01-30T12:51:37.408Z,987.49
2019-01-30T12:52:37.392Z,987.51
2019-01-30T12:53:37.384Z,987.49
2019-01-30T12:54:37.390Z,987.51
2019-01-30T12:55:37.359Z,987.56
2019-01-30T12:56:37.348Z,987.50
2019-01-30T12:57:37.340Z,987.57
2019-01-30T12:58:37.327Z,987.53
2019-01-30T12:59:37.340Z,987.54
2019-01-30T13:00:37.306Z,987.49
2019-01-30T13:01:37.298Z,987.52
2019-01-30T13:02:37.283Z,987.51
2019-01-30T13:03:37.276Z,987.49
2019-01-30T13:04:38.859Z,987.54
2019-01-30T13:05:37.252Z,987.54
2019-01-30T13:06:37.247Z,987.60
2019-01-30T13:07:37.239Z,987.55
2019-01-30T13:08:37.222Z,987.57
2019-01-30T13:09:37.219Z,987.56
2019-01-30T13:10:37.244Z,987.56
2019-01-30T13:11:37.197Z,987.57
2019-01-30T13:12:37.186Z,987.54
2019-01-30T13:13:37.173Z,987.58
2019-01-30T13:14:37.162Z,987.60
2019-01-30T13:15:37.217Z,987.55
2019-01-30T13:16:37.143Z,987.61
2019-01-30T13:17:37.139Z,987.62
2019-01-30T13:18:37.118Z,987.56
2019-01-30T13:19:37.118Z,987.66
2019-01-30T13:20:37.102Z,987.64
2019-01-30T13:21:37.117Z,987.67
2019-01-30T13:22:37.080Z,987.56
2019-01-30T13:23:37.062Z,987.69
2019-01-30T13:24:38.536Z,987.70
2019-01-30T13:25:37.050Z,987.70
2019-01-30T13:26:37.079Z,987.70
2019-01-30T13:27:37.031Z,987.81
2019-01-30T13:28:37.013Z,987.73
2019-01-30T13:29:38.510Z,987.78
2019-01-30T13:30:37.176Z,987.81
2019-01-30T13:31:37.078Z,987.80
2019-01-30T13:32:37.068Z,987.83
2019-01-30T13:33:37.033Z,987.84
2019-01-30T13:34:36.976Z,987.81
2019-01-30T13:35:36.940Z,987.81
2019-01-30T13:36:36.924Z,987.81
2019-01-30T13:37:36.945Z,987.83
2019-01-30T13:38:36.911Z,987.83
2019-01-30T14:15:32.676Z,988.26
2019-01-30T14:16:32.660Z,988.32
2019-01-30T14:17:32.656Z,988.34
2019-01-30T14:18:32.621Z,988.36
2019-01-30T14:19:32.599Z,988.34
2019-01-30T14:20:32.589Z,988.37
2019-01-30T14:21:32.579Z,988.38
2019-01-30T14:22:32.614Z,988.39
2019-01-30T14:23:32.562Z,988.47
2019-01-30T14:24:32.546Z,988.43
2019-01-30T14:25:32.536Z,988.35
2019-01-30T14:26:32.531Z,988.45
2019-01-30T14:27:32.540Z,988.46
2019-01-30T14:28:32.510Z,988.49
2019-01-30T14:29:32.502Z,988.44
2019-01-30T14:30:32.485Z,988.48
2019-01-30T14:31:32.491Z,988.53
2019-01-30T14:32:32.506Z,988.54
2019-01-30T14:33:32.453Z,988.54
2019-01-30T14:34:32.573Z,988.56
2019-01-30T14:35:32.426Z,988.56
2019-01-30T14:36:32.415Z,988.58
2019-01-30T14:37:32.553Z,988.56
2019-01-30T14:38:40.989Z,988.57
2019-01-30T14:39:41.630Z,988.60
2019-01-30T14:40:32.375Z,988.60
2019-01-30T14:41:32.449Z,988.60
2019-01-30T14:42:32.348Z,988.61
2019-01-30T14:43:32.394Z,988.60
2019-01-30T14:44:32.329Z,988.64
2019-01-30T14:45:57.897Z,988.67
2019-01-30T14:46:32.318Z,988.74
2019-01-30T14:47:32.320Z,988.71
2019-01-30T14:48:32.361Z,988.76
2019-01-30T14:49:32.284Z,988.78
2019-01-30T14:50:32.265Z,988.78
2019-01-30T14:51:32.280Z,988.77
2019-01-30T14:52:32.269Z,988.82
2019-01-30T14:53:32.241Z,988.89
2019-01-30T14:54:32.276Z,988.86
2019-01-30T14:55:32.231Z,988.86
2019-01-30T14:56:32.200Z,988.87
2019-01-30T14:57:32.205Z,988.90
2019-01-30T14:58:32.178Z,988.87
2019-01-30T14:59:32.215Z,988.92
2019-01-30T15:00:32.162Z,988.95
2019-01-30T15:01:32.177Z,988.96
2019-01-30T15:02:32.229Z,988.96
2019-01-30T15:03:32.158Z,989.02
2019-01-30T15:04:32.156Z,988.97
2019-01-30T15:05:41.213Z,989.01
2019-01-30T15:07:48.950Z,989.17
2019-01-30T15:15:26.639Z,989.25
2019-01-30T15:15:59.591Z,989.26
2019-01-30T15:17:25.154Z,989.31
2019-01-30T15:17:59.577Z,989.27
2019-01-30T15:18:59.539Z,989.33
2019-01-30T15:19:59.514Z,989.30
2019-01-30T15:20:59.581Z,989.37
2019-01-30T15:21:59.503Z,989.38
2019-01-30T15:22:59.482Z,989.32
2019-01-30T15:23:59.469Z,989.33
2019-01-30T15:24:59.458Z,989.38
2019-01-30T15:25:59.486Z,989.35
2019-01-30T15:26:59.435Z,989.37
2019-01-30T15:27:59.440Z,989.39
2019-01-30T15:28:59.418Z,989.41
2019-01-30T15:29:59.418Z,989.49
2019-01-30T15:30:59.398Z,989.45
2019-01-30T15:31:59.407Z,989.41
2019-01-30T15:32:59.378Z,989.47
2019-01-30T15:33:59.365Z,989.47
2019-01-30T15:34:59.353Z,989.52
2019-01-30T15:35:59.343Z,989.58
2019-01-30T15:36:59.359Z,989.52
2019-01-30T15:37:59.318Z,989.59
2019-01-30T15:38:59.314Z,989.62
2019-01-30T15:39:59.299Z,989.57
2019-01-30T15:40:59.289Z,989.63
2019-01-30T15:41:59.277Z,989.64
2019-01-30T15:42:59.289Z,989.67
2019-01-30T15:43:59.257Z,989.62
2019-01-30T15:44:59.249Z,989.59
2019-01-30T15:45:59.239Z,989.66
2019-01-30T15:46:59.225Z,989.66
2019-01-30T15:47:59.244Z,989.66
2019-01-30T15:48:59.204Z,989.64
2019-01-30T15:49:59.189Z,989.76
2019-01-30T15:50:59.183Z,989.82
2019-01-30T15:51:59.173Z,989.79
2019-01-30T15:52:59.162Z,989.77
2019-01-30T15:53:59.170Z,989.82
2019-01-30T15:54:59.139Z,989.82
2019-01-30T15:55:59.131Z,989.81
2019-01-30T15:56:59.117Z,989.83
2019-01-30T15:57:59.109Z,989.86
2019-01-30T15:58:59.117Z,989.89
2019-01-30T15:59:59.087Z,989.83
2019-01-30T16:00:59.078Z,989.82
2019-01-30T16:01:59.064Z,989.86
2019-01-30T16:02:59.064Z,989.81
2019-01-30T16:03:59.068Z,989.79
2019-01-30T16:04:59.033Z,989.87
2019-01-30T16:05:59.022Z,989.85
2019-01-30T16:06:59.011Z,989.83
2019-01-30T16:07:58.998Z,989.83
2019-01-30T16:08:58.995Z,989.92
2019-01-30T16:09:59.003Z,989.93
2019-01-30T16:10:58.971Z,989.86
2019-01-30T16:11:58.960Z,989.92
2019-01-30T16:12:58.948Z,989.96
2019-01-30T16:13:58.937Z,989.93
2019-01-30T16:15:00.561Z,989.96
2019-01-30T16:15:58.915Z,989.96
2019-01-30T16:16:58.899Z,990.01
2019-01-30T16:17:58.892Z,990.02
2019-01-30T16:18:58.880Z,990.07
2019-01-30T16:19:58.875Z,990.10
2019-01-30T16:20:58.879Z,990.11
2019-01-30T16:21:58.853Z,990.16
2019-01-30T16:22:58.837Z,990.07
2019-01-30T16:23:58.825Z,990.10
2019-01-30T16:25:08.747Z,990.10
2019-01-30T16:25:59.833Z,990.07
2019-01-30T16:26:58.793Z,990.20
2019-01-30T16:27:58.781Z,990.08
2019-01-30T16:28:58.772Z,990.08
2019-01-30T16:29:58.759Z,990.18
2019-01-30T16:30:58.798Z,990.21
2019-01-30T16:31:58.742Z,990.24
2019-01-30T16:32:58.731Z,990.20
2019-01-30T16:33:58.717Z,990.26
2019-01-30T16:34:58.715Z,990.21
2019-01-30T16:35:58.704Z,990.29
2019-01-30T16:36:58.707Z,990.26
2019-01-30T16:37:58.675Z,990.24
2019-01-30T16:38:58.667Z,990.28
2019-01-30T16:39:58.656Z,990.30
2019-01-30T16:40:58.644Z,990.32
2019-01-30T16:41:58.654Z,990.32
2019-01-30T16:42:58.622Z,990.35
2019-01-30T16:43:58.608Z,990.38
2019-01-30T16:44:58.611Z,990.38
2019-01-30T16:45:58.589Z,990.43
2019-01-30T16:46:58.708Z,990.42
2019-01-30T16:47:58.569Z,990.46
2019-01-30T16:48:58.557Z,990.48
2019-01-30T16:49:58.545Z,990.46
2019-01-30T16:50:58.535Z,990.54
2019-01-30T16:51:58.534Z,990.59
2019-01-30T16:52:58.537Z,990.59
2019-01-30T16:53:58.501Z,990.61
2019-01-30T16:54:58.499Z,990.62
2019-01-30T16:55:58.481Z,990.63
2019-01-30T16:56:58.470Z,990.62
2019-01-30T16:57:58.500Z,990.61
2019-01-30T16:58:58.449Z,990.64
2019-01-30T16:59:58.450Z,990.66
2019-01-30T17:00:58.454Z,990.64
2019-01-30T17:01:58.419Z,990.67
2019-01-30T17:02:58.410Z,990.70
2019-01-30T17:03:58.424Z,990.70
2019-01-30T17:04:58.396Z,990.66
2019-01-30T17:06:07.182Z,990.66
2019-01-30T17:06:59.363Z,990.74
2019-01-30T17:08:21.501Z,990.72
2019-01-30T17:08:58.339Z,990.76
2019-01-30T17:09:58.325Z,990.74
2019-01-30T17:10:58.312Z,990.75
2019-01-30T17:11:58.302Z,990.81
2019-01-30T17:16:18.460Z,990.76
2019-01-30T17:17:02.668Z,990.81
2019-01-30T17:18:02.668Z,990.79
2019-01-30T17:19:02.669Z,990.82
2019-01-30T17:20:02.637Z,990.82
2019-01-30T17:21:02.627Z,990.87
2019-01-30T17:22:02.619Z,990.88
2019-01-30T17:23:02.613Z,990.89
2019-01-30T17:24:02.619Z,990.87
2019-01-30T17:25:02.599Z,990.82
2019-01-30T17:26:02.583Z,990.84
2019-01-30T17:27:02.573Z,990.90
2019-01-30T17:30:12.972Z,990.98
2019-01-30T17:31:12.936Z,990.93
2019-01-30T17:32:13.016Z,990.93
2019-01-30T17:33:12.912Z,990.94
2019-01-30T17:34:12.893Z,990.96
2019-01-30T17:35:12.938Z,991.04
2019-01-30T17:36:18.535Z,991.00
2019-01-30T17:37:13.864Z,991.05
2019-01-30T17:38:12.887Z,991.05
2019-01-30T17:39:12.850Z,991.04
2019-01-30T17:40:12.843Z,991.11
2019-01-30T17:41:12.858Z,991.12
2019-01-30T17:42:12.828Z,991.12
2019-01-30T17:43:12.803Z,991.15
2019-01-30T17:44:13.010Z,991.13
2019-01-30T17:45:12.782Z,991.10
2019-01-30T17:46:12.807Z,991.19
2019-01-30T17:47:12.758Z,991.10
2019-01-30T17:48:12.748Z,991.17
2019-01-30T17:49:12.742Z,991.13
2019-01-30T17:50:12.728Z,991.11
2019-01-30T17:51:12.736Z,991.16
2019-01-30T17:52:12.704Z,991.16
2019-01-30T17:53:12.688Z,991.17
2019-01-30T17:54:12.677Z,991.15
2019-01-30T17:55:12.665Z,991.14
2019-01-30T17:56:12.681Z,991.23
2019-01-30T17:57:12.644Z,991.11
2019-01-30T17:58:12.634Z,991.23
2019-01-30T17:59:12.627Z,991.20
2019-01-30T18:00:12.617Z,991.23
2019-01-30T18:01:12.607Z,991.24
2019-01-30T18:02:12.617Z,991.24
2019-01-30T18:03:12.580Z,991.22
2019-01-30T18:04:12.573Z,991.22
2019-01-30T18:05:12.559Z,991.25
2019-01-30T18:06:12.977Z,991.27
2019-01-30T18:07:12.561Z,991.28
2019-01-30T18:08:12.526Z,991.27
2019-01-30T18:09:12.513Z,991.33
2019-01-30T18:10:12.502Z,991.32
2019-01-30T18:11:12.491Z,991.30
2019-01-30T18:12:12.514Z,991.32
2019-01-30T18:13:12.486Z,991.35
2019-01-30T18:14:12.464Z,991.28
2019-01-30T18:15:12.460Z,991.32
2019-01-30T18:16:12.446Z,991.31
2019-01-30T18:17:12.426Z,991.34
2019-01-30T18:18:12.439Z,991.40
2019-01-30T18:19:12.404Z,991.39
2019-01-30T18:20:12.393Z,991.40
2019-01-30T18:21:12.386Z,991.35
2019-01-30T18:22:12.378Z,991.40
2019-01-30T18:23:12.387Z,991.44
2019-01-30T18:24:12.355Z,991.38
2019-01-30T18:25:12.341Z,991.46
2019-01-30T18:26:12.326Z,991.44
2019-01-30T18:27:12.318Z,991.40
2019-01-30T18:28:12.310Z,991.41
2019-01-30T18:29:12.319Z,991.42
2019-01-30T18:30:12.299Z,991.44
2019-01-30T18:31:12.277Z,991.41
2019-01-30T18:32:12.265Z,991.46
2019-01-30T18:33:12.254Z,991.46
2019-01-30T18:34:12.302Z,991.50
2019-01-30T18:35:12.232Z,991.48
2019-01-30T18:36:12.224Z,991.47
2019-01-30T18:37:12.214Z,991.49
2019-01-30T18:38:12.203Z,991.49
2019-01-30T18:39:12.210Z,991.45
2019-01-30T18:40:12.179Z,991.48
2019-01-30T18:41:12.164Z,991.51
2019-01-30T18:42:12.159Z,991.46
2019-01-30T18:43:12.150Z,991.53
2019-01-30T18:44:12.182Z,991.47
2019-01-30T18:45:12.123Z,991.45
2019-01-30T18:46:12.118Z,991.46
2019-01-30T18:47:12.104Z,991.47
2019-01-30T18:48:12.097Z,991.48
2019-01-30T18:49:12.080Z,991.48
2019-01-30T18:50:12.177Z,991.52
2019-01-30T18:51:12.066Z,991.53
2019-01-30T18:52:12.058Z,991.50
2019-01-30T18:53:12.614Z,991.48
2019-01-30T18:58:22.903Z,991.48
2019-01-30T18:58:54.951Z,991.50
2019-01-30T18:59:54.923Z,991.44
2019-01-30T19:00:54.964Z,991.53
2019-01-30T19:01:54.899Z,991.56
2019-01-30T19:02:55.930Z,991.54
2019-01-30T19:03:54.880Z,991.53
2019-01-30T19:04:54.868Z,991.54
2019-01-30T19:05:54.867Z,991.59
2019-01-30T19:06:54.867Z,991.60
2019-01-30T19:07:54.836Z,991.52
2019-01-30T19:08:54.824Z,991.58
2019-01-30T19:09:54.815Z,991.58
2019-01-30T19:10:54.805Z,991.55
2019-01-30T19:11:54.816Z,991.54
2019-01-30T19:12:54.783Z,991.62
2019-01-30T19:13:54.772Z,991.55
2019-01-30T19:14:54.760Z,991.54
2019-01-30T19:15:54.748Z,991.61
2019-01-30T19:16:54.760Z,991.60
2019-01-30T19:17:54.725Z,991.57
2019-01-30T19:18:54.718Z,991.57
2019-01-30T19:19:54.711Z,991.60
2019-01-30T19:20:54.693Z,991.60
2019-01-30T19:21:54.685Z,991.62
2019-01-30T19:22:54.698Z,991.65
2019-01-30T19:23:54.660Z,991.60
2019-01-30T19:24:54.648Z,991.64
2019-01-30T19:25:54.641Z,991.63
2019-01-30T19:26:54.628Z,991.66
2019-01-30T19:27:56.139Z,991.60
2019-01-30T19:28:54.608Z,991.58
2019-01-30T19:29:54.596Z,991.63
2019-01-30T19:30:54.583Z,991.68
2019-01-30T19:31:54.575Z,991.67
2019-01-30T19:32:54.567Z,991.65
2019-01-30T19:33:54.573Z,991.68
2019-01-30T19:34:54.545Z,991.61
2019-01-30T19:35:54.532Z,991.64
2019-01-30T19:37:03.192Z,991.65
2019-01-30T19:37:55.508Z,991.68
2019-01-30T19:38:54.517Z,991.66
2019-01-30T19:39:54.487Z,991.63
2019-01-30T19:40:54.480Z,991.69
2019-01-30T19:41:54.464Z,991.65
2019-01-30T19:42:54.462Z,991.66
2019-01-30T19:43:54.475Z,991.66
2019-01-30T19:44:54.434Z,991.65
2019-01-30T19:45:54.423Z,991.64
2019-01-30T19:46:55.931Z,991.74
2019-01-30T19:47:54.407Z,991.69
2019-01-30T19:48:54.434Z,991.70
2019-01-30T19:49:54.377Z,991.70
2019-01-30T19:50:54.369Z,991.76
2019-01-30T19:51:54.372Z,991.83
2019-01-30T19:52:54.347Z,991.76
2019-01-30T19:53:54.337Z,991.72
2019-01-30T19:54:54.347Z,991.84
2019-01-30T19:55:54.312Z,991.75
2019-01-30T19:56:54.302Z,991.76
2019-01-30T19:57:54.293Z,991.73
2019-01-30T19:58:54.278Z,991.73
2019-01-30T19:59:54.267Z,991.77
2019-01-30T20:00:54.278Z,991.76
2019-01-30T20:01:54.249Z,991.67
2019-01-30T20:02:54.235Z,991.77
2019-01-30T20:03:54.227Z,991.72
2019-01-30T20:04:54.213Z,991.74
2019-01-30T20:05:54.231Z,991.75
2019-01-30T20:06:54.192Z,991.76
2019-01-30T20:07:54.186Z,991.78
2019-01-30T20:08:54.168Z,991.78
2019-01-30T20:09:54.159Z,991.80
2019-01-30T20:10:54.151Z,991.79
2019-01-30T20:11:54.158Z,991.81
2019-01-30T20:12:54.127Z,991.84
2019-01-30T20:13:54.114Z,991.82
2019-01-30T20:14:54.104Z,991.80
2019-01-30T20:15:54.100Z,991.85
2019-01-30T20:16:54.109Z,991.82
2019-01-30T20:17:54.072Z,991.78
2019-01-30T20:18:54.061Z,991.82
2019-01-30T20:19:54.049Z,991.83
2019-01-30T20:20:54.042Z,991.87
2019-01-30T20:21:54.029Z,991.88
2019-01-30T20:22:54.040Z,991.88
2019-01-30T20:23:54.010Z,991.89
2019-01-30T20:24:53.995Z,991.90
2019-01-30T20:25:53.986Z,991.90
2019-01-30T20:26:53.975Z,991.84
2019-01-30T20:27:53.991Z,991.83
2019-01-30T20:28:53.951Z,991.86
2019-01-30T20:29:53.942Z,991.83
2019-01-30T20:30:53.931Z,991.84
2019-01-30T20:31:53.921Z,991.89
2019-01-30T20:32:53.911Z,991.96
2019-01-30T20:33:53.922Z,991.90
2019-01-30T20:34:53.887Z,991.87
2019-01-30T20:35:53.873Z,991.88
2019-01-30T20:36:53.864Z,991.86
2019-01-30T20:37:53.852Z,991.87
2019-01-30T20:38:53.864Z,991.89
2019-01-30T20:39:53.830Z,991.99
2019-01-30T20:40:53.819Z,992.01
2019-01-30T20:41:53.808Z,992.01
2019-01-30T20:42:53.808Z,992.06
2019-01-30T20:43:53.814Z,992.00
2019-01-30T20:44:53.777Z,992.00
2019-01-30T20:45:53.767Z,992.08
2019-01-30T20:46:53.755Z,992.02
2019-01-30T20:47:53.743Z,992.05
2019-01-30T20:48:53.735Z,992.07
2019-01-30T20:49:53.746Z,992.04
2019-01-30T20:50:53.714Z,992.00
2019-01-30T20:51:53.702Z,992.07
2019-01-30T20:52:53.690Z,992.10
2019-01-30T20:53:53.679Z,992.09
2019-01-30T20:54:59.816Z,992.09
2019-01-30T20:55:55.338Z,992.10
2019-01-30T20:56:53.646Z,992.14
2019-01-30T20:57:53.634Z,992.15
2019-01-30T20:58:53.627Z,992.21
2019-01-30T20:59:53.612Z,992.15
2019-01-30T21:00:53.622Z,992.22
2019-01-30T21:01:53.591Z,992.22
2019-01-30T21:02:53.579Z,992.20
2019-01-30T21:03:53.571Z,992.24
2019-01-30T21:04:53.557Z,992.21
2019-01-30T21:05:53.575Z,992.30
2019-01-30T21:06:53.538Z,992.24
2019-01-30T21:07:53.525Z,992.24
2019-01-30T21:08:53.534Z,992.31
2019-01-30T21:09:53.505Z,992.24
2019-01-30T21:10:53.492Z,992.30
2019-01-30T21:11:54.489Z,992.31
2019-01-30T21:12:53.470Z,992.28
2019-01-30T21:13:53.459Z,992.26
2019-01-30T21:14:53.450Z,992.25
2019-01-30T21:15:53.438Z,992.31
2019-01-30T21:16:54.344Z,992.28
2019-01-30T21:17:53.413Z,992.26
2019-01-30T21:18:53.408Z,992.26
2019-01-30T21:19:53.393Z,992.31
2019-01-30T21:20:53.384Z,992.34
2019-01-30T21:21:53.392Z,992.34
2019-01-30T21:22:53.368Z,992.32
2019-01-30T21:23:53.355Z,992.31
2019-01-30T21:24:53.341Z,992.32
2019-01-30T21:25:53.328Z,992.37
2019-01-30T21:26:53.344Z,992.33
2019-01-30T21:27:53.309Z,992.34
2019-01-30T21:28:53.295Z,992.38
2019-01-30T21:29:53.288Z,992.36
2019-01-30T21:30:53.272Z,992.40
2019-01-30T21:31:54.969Z,992.43
2019-01-30T21:32:53.271Z,992.37
2019-01-30T21:33:53.240Z,992.36
2019-01-30T21:34:53.231Z,992.42
2019-01-30T21:35:53.218Z,992.40
2019-01-30T21:36:53.207Z,992.39
2019-01-30T21:37:53.229Z,992.40
2019-01-30T21:38:53.187Z,992.38
2019-01-30T21:39:53.177Z,992.40
2019-01-30T21:40:53.164Z,992.37
2019-01-30T21:41:53.153Z,992.43
2019-01-30T21:42:53.142Z,992.43
2019-01-30T21:43:53.157Z,992.42
2019-01-30T21:44:53.125Z,992.43
2019-01-30T21:45:53.173Z,992.45
2019-01-30T21:46:53.819Z,992.44
2019-01-30T21:47:53.088Z,992.47
2019-01-30T21:48:55.397Z,992.40
2019-01-30T21:49:53.078Z,992.42
2019-01-30T21:50:53.071Z,992.46
2019-01-30T21:51:53.055Z,992.51
2019-01-30T21:52:53.043Z,992.50
2019-01-30T21:53:53.049Z,992.50
2019-01-30T21:54:53.011Z,992.51
2019-01-30T21:55:53.002Z,992.46
2019-01-30T21:56:52.991Z,992.47
2019-01-30T21:57:52.983Z,992.47
2019-01-30T21:58:53.363Z,992.43
2019-01-30T21:59:52.966Z,992.48
2019-01-30T22:00:52.946Z,992.44
2019-01-30T22:01:52.936Z,992.50
2019-01-30T22:02:52.925Z,992.49
2019-01-30T22:03:52.948Z,992.45
2019-01-30T22:04:52.902Z,992.46
2019-01-30T22:05:52.895Z,992.49
2019-01-30T22:06:52.879Z,992.49
2019-01-30T22:08:00.764Z,992.60
2019-01-30T22:08:55.978Z,992.56
2019-01-30T22:09:52.849Z,992.56
2019-01-30T22:10:52.836Z,992.60
2019-01-30T22:11:52.826Z,992.61
2019-01-30T22:12:52.814Z,992.58
2019-01-30T22:13:52.803Z,992.70
2019-01-30T22:14:52.817Z,992.74
2019-01-30T22:15:52.783Z,992.72
2019-01-30T22:16:52.771Z,992.73
2019-01-30T22:17:52.759Z,992.68
2019-01-30T22:18:52.748Z,992.71
2019-01-30T22:19:52.739Z,992.69
2019-01-30T22:20:52.749Z,992.75
2019-01-30T22:21:52.717Z,992.73
2019-01-30T22:22:52.706Z,992.75
2019-01-30T22:23:52.696Z,992.79
2019-01-30T22:24:52.686Z,992.77
2019-01-30T22:25:52.694Z,992.76
2019-01-30T22:26:52.660Z,992.76
2019-01-30T22:27:52.651Z,992.71
2019-01-30T22:28:52.641Z,992.68
2019-01-30T22:29:52.630Z,992.64
2019-01-30T22:30:52.641Z,992.64
2019-01-30T22:31:52.609Z,992.70
2019-01-30T22:32:52.600Z,992.72
2019-01-30T22:33:52.586Z,992.72
2019-01-30T22:34:52.574Z,992.72
2019-01-30T22:35:52.607Z,992.71
2019-01-30T22:36:52.555Z,992.78
2019-01-30T22:37:52.542Z,992.80
2019-01-30T22:38:52.533Z,992.79
2019-01-30T22:39:52.520Z,992.85
2019-01-30T22:40:52.510Z,992.75
2019-01-30T22:41:53.353Z,992.81
2019-01-30T22:42:52.489Z,992.82
2019-01-30T22:43:52.480Z,992.85
2019-01-30T22:44:52.470Z,992.88
2019-01-30T22:45:52.454Z,992.81
2019-01-30T22:46:52.486Z,992.84
2019-01-30T22:47:52.432Z,992.87
2019-01-30T22:48:52.426Z,992.86
2019-01-30T22:49:52.412Z,992.86
2019-01-30T22:50:52.402Z,992.85
2019-01-30T22:51:52.391Z,992.83
2019-01-30T22:52:52.399Z,992.83
2019-01-30T22:53:52.369Z,992.86
2019-01-30T22:54:52.357Z,992.78
2019-01-30T22:55:52.346Z,992.85
2019-01-30T22:56:52.334Z,992.79
2019-01-30T22:57:52.349Z,992.86
2019-01-30T22:58:52.336Z,992.86
2019-01-30T22:59:52.302Z,992.81
2019-01-30T23:00:52.293Z,992.89
2019-01-30T23:01:52.280Z,992.89
2019-01-30T23:02:52.270Z,992.85
2019-01-30T23:03:52.279Z,992.89
2019-01-30T23:04:52.248Z,992.92
2019-01-30T23:05:52.240Z,992.85
2019-01-30T23:06:52.228Z,992.86
2019-01-30T23:07:52.215Z,992.94
2019-01-30T23:08:53.859Z,993.00
2019-01-30T23:09:52.192Z,992.97
2019-01-30T23:10:52.185Z,992.98
2019-01-30T23:11:52.170Z,992.99
2019-01-30T23:12:52.165Z,993.04
2019-01-30T23:13:52.148Z,993.02
2019-01-30T23:14:52.157Z,992.96
2019-01-30T23:15:52.127Z,993.01
2019-01-30T23:16:52.116Z,993.01
2019-01-30T23:17:52.106Z,992.96
2019-01-30T23:18:52.099Z,993.06
2019-01-30T23:19:52.106Z,993.02
2019-01-30T23:20:52.073Z,992.96
2019-01-30T23:21:52.065Z,992.96
2019-01-30T23:22:52.052Z,993.00
2019-01-30T23:23:52.041Z,993.04
2019-01-30T23:24:52.052Z,993.05
2019-01-30T23:25:52.020Z,993.00
2019-01-30T23:26:52.011Z,993.05
2019-01-30T23:27:51.996Z,993.04
2019-01-30T23:28:52.029Z,993.06
2019-01-30T23:29:51.979Z,993.09
2019-01-30T23:30:51.965Z,993.03
2019-01-30T23:31:51.953Z,993.06
2019-01-30T23:32:51.942Z,993.09
2019-01-30T23:33:51.932Z,993.08
2019-01-30T23:34:51.942Z,993.23
2019-01-30T23:35:51.913Z,993.20
2019-01-30T23:36:51.899Z,993.12
2019-01-30T23:37:52.946Z,993.18
2019-01-30T23:38:51.878Z,993.07
2019-01-30T23:39:51.891Z,993.18
2019-01-30T23:40:51.855Z,993.17
2019-01-30T23:41:51.843Z,993.19
2019-01-30T23:42:51.834Z,993.24
2019-01-30T23:43:51.823Z,993.24
2019-01-30T23:44:51.833Z,993.21
2019-01-30T23:45:51.800Z,993.20
2019-01-30T23:46:51.789Z,993.29
2019-01-30T23:47:51.779Z,993.26
2019-01-30T23:48:51.770Z,993.28
2019-01-30T23:49:51.777Z,993.20
2019-01-30T23:50:51.749Z,993.23
2019-01-30T23:51:51.736Z,993.26
2019-01-30T23:52:51.723Z,993.28
2019-01-30T23:53:51.712Z,993.25
2019-01-30T23:54:51.722Z,993.26
2019-01-30T23:55:51.694Z,993.23
2019-01-30T23:56:51.680Z,993.18
2019-01-30T23:57:51.671Z,993.25
2019-01-30T23:58:51.658Z,993.25
2019-01-30T23:59:51.650Z,993.16
